sensor_id;sensor_type;location;lat;lon;timestamp;pressure;altitude;pressure_sealevel;temperature;humidity
12178;BME280;6152;48.728;9.256;2023-04-19T00:00:49;97610.13;;;9.29;100.00
12178;BME280;6152;48.728;9.256;2023-04-19T00:03:15;97601.72;;;9.24;100.00
12178;BME280;6152;48.728;9.256;2023-04-19T00:05:42;97604.38;;;9.22;100.00
12178;BME280;6152;48.728;9.256;2023-04-19T00:08:08;97599.88;;;9.26;100.00
12178;BME280;6152;48.728;9.256;2023-04-19T00:10:34;97599.03;;;9.25;100.00
12178;BME280;6152;48.728;9.256;2023-04-19T00:13:05;97598.97;;;9.27;100.00
12178;BME280;6152;48.728;9.256;2023-04-19T00:15:31;97596.28;;;9.28;100.00
12178;BME280;6152;48.728;9.256;2023-04-19T00:17:57;97599.53;;;9.33;100.00
12178;BME280;6152;48.728;9.256;2023-04-19T00:20:23;97598.19;;;9.25;100.00
12178;BME280;6152;48.728;9.256;2023-04-19T00:22:49;97600.44;;;9.32;100.00
12178;BME280;6152;48.728;9.256;2023-04-19T00:25:15;97598.88;;;9.28;100.00
12178;BME280;6152;48.728;9.256;2023-04-19T00:27:42;97586.13;;;9.24;100.00
12178;BME280;6152;48.728;9.256;2023-04-19T00:30:08;97585.56;;;9.17;100.00
12178;BME280;6152;48.728;9.256;2023-04-19T00:32:34;97590.00;;;9.15;100.00
12178;BME280;6152;48.728;9.256;2023-04-19T00:35:00;97588.78;;;9.22;100.00
12178;BME280;6152;48.728;9.256;2023-04-19T00:37:26;97589.94;;;9.17;100.00
12178;BME280;6152;48.728;9.256;2023-04-19T00:39:52;97585.56;;;9.17;100.00
12178;BME280;6152;48.728;9.256;2023-04-19T00:42:19;97586.66;;;9.13;100.00
12178;BME280;6152;48.728;9.256;2023-04-19T00:44:45;97580.66;;;9.11;100.00
12178;BME280;6152;48.728;9.256;2023-04-19T00:47:11;97577.91;;;9.14;100.00
12178;BME280;6152;48.728;9.256;2023-04-19T00:49:39;97581.91;;;9.21;100.00
12178;BME280;6152;48.728;9.256;2023-04-19T00:52:06;97584.06;;;9.13;100.00
12178;BME280;6152;48.728;9.256;2023-04-19T00:54:32;97579.75;;;9.12;100.00
12178;BME280;6152;48.728;9.256;2023-04-19T00:56:59;97577.09;;;9.13;100.00
12178;BME280;6152;48.728;9.256;2023-04-19T00:59:26;97577.31;;;9.09;100.00
12178;BME280;6152;48.728;9.256;2023-04-19T01:01:52;97579.91;;;9.09;100.00
12178;BME280;6152;48.728;9.256;2023-04-19T01:04:19;97577.31;;;9.09;100.00
12178;BME280;6152;48.728;9.256;2023-04-19T01:06:45;97576.63;;;9.05;100.00
12178;BME280;6152;48.728;9.256;2023-04-19T01:09:11;97569.94;;;9.00;100.00
12178;BME280;6152;48.728;9.256;2023-04-19T01:11:37;97571.03;;;8.96;100.00
12178;BME280;6152;48.728;9.256;2023-04-19T01:14:03;97574.06;;;9.04;100.00
12178;BME280;6152;48.728;9.256;2023-04-19T01:16:30;97565.94;;;9.11;100.00
12178;BME280;6152;48.728;9.256;2023-04-19T01:18:58;97565.22;;;9.08;100.00
12178;BME280;6152;48.728;9.256;2023-04-19T01:21:24;97563.53;;;9.07;100.00
12178;BME280;6152;48.728;9.256;2023-04-19T01:23:50;97562.03;;;9.03;100.00
12178;BME280;6152;48.728;9.256;2023-04-19T01:26:19;97562.03;;;9.03;100.00
12178;BME280;6152;48.728;9.256;2023-04-19T01:28:45;97557.94;;;8.97;100.00
12178;BME280;6152;48.728;9.256;2023-04-19T01:31:11;97555.44;;;8.96;100.00
12178;BME280;6152;48.728;9.256;2023-04-19T01:33:37;97562.16;;;9.00;100.00
12178;BME280;6152;48.728;9.256;2023-04-19T01:36:04;97557.09;;;8.97;100.00
12178;BME280;6152;48.728;9.256;2023-04-19T01:38:30;97549.47;;;8.94;100.00
12178;BME280;6152;48.728;9.256;2023-04-19T01:40:56;97558.25;;;8.91;100.00
12178;BME280;6152;48.728;9.256;2023-04-19T01:43:22;97543.66;;;8.89;100.00
12178;BME280;6152;48.728;9.256;2023-04-19T01:45:48;97543.72;;;8.87;100.00
12178;BME280;6152;48.728;9.256;2023-04-19T01:48:14;97543.66;;;8.89;100.00
12178;BME280;6152;48.728;9.256;2023-04-19T01:50:40;97535.88;;;8.89;100.00
12178;BME280;6152;48.728;9.256;2023-04-19T01:53:06;97535.59;;;8.95;100.00
12178;BME280;6152;48.728;9.256;2023-04-19T01:55:33;97536.84;;;8.86;100.00
12178;BME280;6152;48.728;9.256;2023-04-19T01:57:59;97538.63;;;8.86;100.00
12178;BME280;6152;48.728;9.256;2023-04-19T02:00:25;97529.16;;;8.85;100.00
12178;BME280;6152;48.728;9.256;2023-04-19T02:02:51;97523.31;;;8.80;100.00
12178;BME280;6152;48.728;9.256;2023-04-19T02:05:17;97531.88;;;8.82;100.00
12178;BME280;6152;48.728;9.256;2023-04-19T02:07:43;97531.09;;;8.80;100.00
12178;BME280;6152;48.728;9.256;2023-04-19T02:10:10;97524.00;;;8.83;100.00
12178;BME280;6152;48.728;9.256;2023-04-19T02:12:40;97531.03;;;8.81;100.00
12178;BME280;6152;48.728;9.256;2023-04-19T02:15:07;97531.59;;;8.88;100.00
12178;BME280;6152;48.728;9.256;2023-04-19T02:17:33;97522.25;;;8.84;100.00
12178;BME280;6152;48.728;9.256;2023-04-19T02:20:00;97526.16;;;8.75;100.00
12178;BME280;6152;48.728;9.256;2023-04-19T02:22:26;97515.22;;;8.69;100.00
12178;BME280;6152;48.728;9.256;2023-04-19T02:24:52;97510.03;;;8.69;100.00
12178;BME280;6152;48.728;9.256;2023-04-19T02:27:19;97510.63;;;8.74;100.00
12178;BME280;6152;48.728;9.256;2023-04-19T02:29:45;97507.28;;;8.72;100.00
12178;BME280;6152;48.728;9.256;2023-04-19T02:32:12;97505.44;;;8.74;100.00
12178;BME280;6152;48.728;9.256;2023-04-19T02:34:38;97508.47;;;8.65;100.00
12178;BME280;6152;48.728;9.256;2023-04-19T02:37:04;97500.91;;;8.60;100.00
12178;BME280;6152;48.728;9.256;2023-04-19T02:39:31;97505.88;;;8.65;100.00
12178;BME280;6152;48.728;9.256;2023-04-19T02:41:57;97496.22;;;8.68;100.00
12178;BME280;6152;48.728;9.256;2023-04-19T02:44:23;97497.47;;;8.59;100.00
12178;BME280;6152;48.728;9.256;2023-04-19T02:46:53;97493.31;;;8.55;100.00
12178;BME280;6152;48.728;9.256;2023-04-19T02:49:20;97494.25;;;8.54;100.00
12178;BME280;6152;48.728;9.256;2023-04-19T02:51:46;97502.78;;;8.56;100.00
12178;BME280;6152;48.728;9.256;2023-04-19T02:54:12;97489.97;;;8.53;100.00
12178;BME280;6152;48.728;9.256;2023-04-19T02:56:39;97484.59;;;8.58;100.00
12178;BME280;6152;48.728;9.256;2023-04-19T02:59:05;97486.63;;;8.51;100.00
12178;BME280;6152;48.728;9.256;2023-04-19T03:01:31;97487.66;;;8.47;100.00
12178;BME280;6152;48.728;9.256;2023-04-19T03:03:57;97485.22;;;8.44;100.00
12178;BME280;6152;48.728;9.256;2023-04-19T03:06:24;97485.06;;;8.47;100.00
12178;BME280;6152;48.728;9.256;2023-04-19T03:08:51;97479.34;;;8.41;100.00
12178;BME280;6152;48.728;9.256;2023-04-19T03:11:17;97480.16;;;8.41;100.00
12178;BME280;6152;48.728;9.256;2023-04-19T03:13:44;97481.00;;;8.42;100.00
12178;BME280;6152;48.728;9.256;2023-04-19T03:16:10;97484.53;;;8.41;100.00
12178;BME280;6152;48.728;9.256;2023-04-19T03:18:36;97482.00;;;8.39;100.00
12178;BME280;6152;48.728;9.256;2023-04-19T03:21:03;97477.78;;;8.37;100.00
12178;BME280;6152;48.728;9.256;2023-04-19T03:23:29;97482.19;;;8.35;100.00
12178;BME280;6152;48.728;9.256;2023-04-19T03:25:56;97476.25;;;8.33;100.00
12178;BME280;6152;48.728;9.256;2023-04-19T03:28:22;97475.53;;;8.29;100.00
12178;BME280;6152;48.728;9.256;2023-04-19T03:30:48;97468.53;;;8.31;100.00
12178;BME280;6152;48.728;9.256;2023-04-19T03:33:14;97475.66;;;8.26;100.00
12178;BME280;6152;48.728;9.256;2023-04-19T03:35:40;97476.56;;;8.25;100.00
12178;BME280;6152;48.728;9.256;2023-04-19T03:38:06;97473.97;;;8.25;100.00
12178;BME280;6152;48.728;9.256;2023-04-19T03:40:33;97469.06;;;8.19;100.00
12178;BME280;6152;48.728;9.256;2023-04-19T03:42:59;97477.03;;;8.14;100.00
12178;BME280;6152;48.728;9.256;2023-04-19T03:45:25;97467.47;;;8.17;100.00
12178;BME280;6152;48.728;9.256;2023-04-19T03:47:52;97465.69;;;8.17;100.00
12178;BME280;6152;48.728;9.256;2023-04-19T03:50:18;97465.78;;;8.16;100.00
12178;BME280;6152;48.728;9.256;2023-04-19T03:52:44;97467.94;;;8.06;100.00
12178;BME280;6152;48.728;9.256;2023-04-19T03:55:11;97467.09;;;8.05;100.00
12178;BME280;6152;48.728;9.256;2023-04-19T03:57:39;97461.91;;;8.05;100.00
12178;BME280;6152;48.728;9.256;2023-04-19T04:00:06;97458.63;;;8.02;100.00
12178;BME280;6152;48.728;9.256;2023-04-19T04:02:36;97455.88;;;8.05;100.00
12178;BME280;6152;48.728;9.256;2023-04-19T04:05:02;97462.91;;;8.03;100.00
12178;BME280;6152;48.728;9.256;2023-04-19T04:07:29;97462.75;;;8.06;100.00
12178;BME280;6152;48.728;9.256;2023-04-19T04:09:55;97464.50;;;8.05;100.00
12178;BME280;6152;48.728;9.256;2023-04-19T04:12:21;97460.38;;;8.01;100.00
12178;BME280;6152;48.728;9.256;2023-04-19T04:14:47;97464.06;;;7.96;100.00
12178;BME280;6152;48.728;9.256;2023-04-19T04:17:13;97462.72;;;7.87;100.00
12178;BME280;6152;48.728;9.256;2023-04-19T04:19:39;97463.91;;;7.80;100.00
12178;BME280;6152;48.728;9.256;2023-04-19T04:22:06;97465.41;;;7.86;100.00
12178;BME280;6152;48.728;9.256;2023-04-19T04:24:37;97472.47;;;7.82;100.00
12178;BME280;6152;48.728;9.256;2023-04-19T04:27:06;97467.34;;;7.81;100.00
12178;BME280;6152;48.728;9.256;2023-04-19T04:29:35;97470.06;;;7.78;100.00
12178;BME280;6152;48.728;9.256;2023-04-19T04:32:03;97470.97;;;7.77;100.00
12178;BME280;6152;48.728;9.256;2023-04-19T04:34:29;97473.88;;;7.69;100.00
12178;BME280;6152;48.728;9.256;2023-04-19T04:36:55;97465.91;;;7.74;100.00
12178;BME280;6152;48.728;9.256;2023-04-19T04:39:22;97463.66;;;7.66;100.00
12178;BME280;6152;48.728;9.256;2023-04-19T04:41:48;97468.69;;;7.69;100.00
12178;BME280;6152;48.728;9.256;2023-04-19T04:44:16;97472.13;;;7.70;100.00
12178;BME280;6152;48.728;9.256;2023-04-19T04:46:42;97460.88;;;7.71;100.00
12178;BME280;6152;48.728;9.256;2023-04-19T04:49:08;97460.75;;;7.74;100.00
12178;BME280;6152;48.728;9.256;2023-04-19T04:51:35;97471.06;;;7.75;100.00
12178;BME280;6152;48.728;9.256;2023-04-19T04:54:02;97471.09;;;7.74;100.00
12178;BME280;6152;48.728;9.256;2023-04-19T04:56:30;97469.41;;;7.73;100.00
12178;BME280;6152;48.728;9.256;2023-04-19T04:58:56;97475.53;;;7.72;100.00
12178;BME280;6152;48.728;9.256;2023-04-19T05:01:22;97477.69;;;7.81;100.00
12178;BME280;6152;48.728;9.256;2023-04-19T05:03:49;97481.66;;;7.89;100.00
12178;BME280;6152;48.728;9.256;2023-04-19T05:06:15;97485.16;;;7.88;100.00
12178;BME280;6152;48.728;9.256;2023-04-19T05:08:42;97482.56;;;7.88;100.00
12178;BME280;6152;48.728;9.256;2023-04-19T05:11:09;97483.13;;;7.95;100.00
12178;BME280;6152;48.728;9.256;2023-04-19T05:13:38;97478.56;;;8.00;100.00
12178;BME280;6152;48.728;9.256;2023-04-19T05:16:04;97482.69;;;8.04;100.00
12178;BME280;6152;48.728;9.256;2023-04-19T05:18:30;97477.59;;;8.02;100.00
12178;BME280;6152;48.728;9.256;2023-04-19T05:20:57;97481.03;;;8.03;100.00
12178;BME280;6152;48.728;9.256;2023-04-19T05:23:23;97483.53;;;8.04;100.00
12178;BME280;6152;48.728;9.256;2023-04-19T05:25:49;97485.16;;;8.07;100.00
12178;BME280;6152;48.728;9.256;2023-04-19T05:28:15;97483.34;;;8.09;100.00
12178;BME280;6152;48.728;9.256;2023-04-19T05:30:42;97486.41;;;8.17;100.00
12178;BME280;6152;48.728;9.256;2023-04-19T05:33:08;97497.72;;;8.16;100.00
12178;BME280;6152;48.728;9.256;2023-04-19T05:35:34;97488.97;;;8.19;100.00
12178;BME280;6152;48.728;9.256;2023-04-19T05:38:00;97492.72;;;8.11;100.00
12178;BME280;6152;48.728;9.256;2023-04-19T05:40:26;97496.31;;;8.09;100.00
12178;BME280;6152;48.728;9.256;2023-04-19T05:42:53;97487.34;;;8.16;100.00
12178;BME280;6152;48.728;9.256;2023-04-19T05:45:20;97489.09;;;8.16;100.00
12178;BME280;6152;48.728;9.256;2023-04-19T05:47:46;97491.09;;;8.29;100.00
12178;BME280;6152;48.728;9.256;2023-04-19T05:50:12;97493.16;;;8.21;100.00
12178;BME280;6152;48.728;9.256;2023-04-19T05:52:42;97492.91;;;8.27;100.00
12178;BME280;6152;48.728;9.256;2023-04-19T05:55:08;97496.28;;;8.29;100.00
12178;BME280;6152;48.728;9.256;2023-04-19T05:57:34;97493.50;;;8.34;100.00
12178;BME280;6152;48.728;9.256;2023-04-19T06:00:01;97495.59;;;8.44;100.00
12178;BME280;6152;48.728;9.256;2023-04-19T06:02:27;97496.16;;;8.51;100.00
12178;BME280;6152;48.728;9.256;2023-04-19T06:04:53;97497.97;;;8.49;100.00
12178;BME280;6152;48.728;9.256;2023-04-19T06:07:19;97492.22;;;8.42;100.00
12178;BME280;6152;48.728;9.256;2023-04-19T06:09:45;97495.38;;;8.49;100.00
12178;BME280;6152;48.728;9.256;2023-04-19T06:12:12;97497.75;;;8.53;100.00
12178;BME280;6152;48.728;9.256;2023-04-19T06:14:38;97496.84;;;8.54;100.00
12178;BME280;6152;48.728;9.256;2023-04-19T06:17:04;97492.38;;;8.58;100.00
12178;BME280;6152;48.728;9.256;2023-04-19T06:19:30;97491.22;;;8.63;100.00
12178;BME280;6152;48.728;9.256;2023-04-19T06:21:58;97497.50;;;8.77;100.00
12178;BME280;6152;48.728;9.256;2023-04-19T06:24:25;97498.00;;;8.85;100.00
12178;BME280;6152;48.728;9.256;2023-04-19T06:26:51;97496.66;;;8.95;100.00
12178;BME280;6152;48.728;9.256;2023-04-19T06:29:17;97493.00;;;8.99;100.00
12178;BME280;6152;48.728;9.256;2023-04-19T06:31:46;97495.97;;;9.08;100.00
12178;BME280;6152;48.728;9.256;2023-04-19T06:34:12;97504.91;;;9.03;100.00
12178;BME280;6152;48.728;9.256;2023-04-19T06:36:38;97501.72;;;9.15;100.00
12178;BME280;6152;48.728;9.256;2023-04-19T06:39:04;97494.22;;;9.09;100.00
12178;BME280;6152;48.728;9.256;2023-04-19T06:41:31;97496.22;;;9.21;100.00
12178;BME280;6152;48.728;9.256;2023-04-19T06:43:57;97504.16;;;9.35;100.00
12178;BME280;6152;48.728;9.256;2023-04-19T06:46:23;97505.34;;;9.47;100.00
12178;BME280;6152;48.728;9.256;2023-04-19T06:48:49;97497.16;;;9.54;100.00
12178;BME280;6152;48.728;9.256;2023-04-19T06:51:15;97507.25;;;9.60;100.00
12178;BME280;6152;48.728;9.256;2023-04-19T06:53:42;97502.94;;;9.77;100.00
12178;BME280;6152;48.728;9.256;2023-04-19T06:56:09;97506.06;;;9.83;100.00
12178;BME280;6152;48.728;9.256;2023-04-19T06:58:36;97503.53;;;9.99;100.00
12178;BME280;6152;48.728;9.256;2023-04-19T07:01:05;97496.47;;;10.01;100.00
12178;BME280;6152;48.728;9.256;2023-04-19T07:03:31;97494.66;;;10.03;100.00
12178;BME280;6152;48.728;9.256;2023-04-19T07:05:57;97491.59;;;9.95;100.00
12178;BME280;6152;48.728;9.256;2023-04-19T07:08:24;97490.75;;;9.94;100.00
12178;BME280;6152;48.728;9.256;2023-04-19T07:10:50;97492.41;;;9.62;100.00
12178;BME280;6152;48.728;9.256;2023-04-19T07:13:16;97491.16;;;9.70;100.00
12178;BME280;6152;48.728;9.256;2023-04-19T07:15:42;97488.34;;;9.74;100.00
12178;BME280;6152;48.728;9.256;2023-04-19T07:18:08;97490.41;;;9.85;100.00
12178;BME280;6152;48.728;9.256;2023-04-19T07:20:36;97493.44;;;9.93;100.00
12178;BME280;6152;48.728;9.256;2023-04-19T07:23:02;97486.25;;;9.98;100.00
12178;BME280;6152;48.728;9.256;2023-04-19T07:25:28;97477.88;;;10.08;100.00
12178;BME280;6152;48.728;9.256;2023-04-19T07:27:54;97484.75;;;10.09;100.00
12178;BME280;6152;48.728;9.256;2023-04-19T07:30:21;97479.53;;;10.27;100.00
12178;BME280;6152;48.728;9.256;2023-04-19T07:32:47;97484.66;;;10.28;100.00
12178;BME280;6152;48.728;9.256;2023-04-19T07:35:16;97479.06;;;10.51;100.00
12178;BME280;6152;48.728;9.256;2023-04-19T07:37:42;97473.06;;;10.81;100.00
12178;BME280;6152;48.728;9.256;2023-04-19T07:40:09;97476.84;;;10.91;100.00
12178;BME280;6152;48.728;9.256;2023-04-19T07:42:35;97482.91;;;11.21;100.00
12178;BME280;6152;48.728;9.256;2023-04-19T07:45:01;97475.03;;;11.07;100.00
12178;BME280;6152;48.728;9.256;2023-04-19T07:47:28;97474.50;;;11.32;100.00
12178;BME280;6152;48.728;9.256;2023-04-19T07:49:54;97473.66;;;11.31;100.00
12178;BME280;6152;48.728;9.256;2023-04-19T07:52:21;97469.28;;;11.61;100.00
12178;BME280;6152;48.728;9.256;2023-04-19T07:54:47;97460.75;;;11.74;100.00
12178;BME280;6152;48.728;9.256;2023-04-19T07:57:13;97461.50;;;11.90;100.00
12178;BME280;6152;48.728;9.256;2023-04-19T07:59:39;97471.94;;;11.90;100.00
12178;BME280;6152;48.728;9.256;2023-04-19T08:02:06;97456.28;;;12.04;100.00
12178;BME280;6152;48.728;9.256;2023-04-19T08:04:32;97457.59;;;12.11;100.00
12178;BME280;6152;48.728;9.256;2023-04-19T08:06:59;97459.25;;;11.84;100.00
12178;BME280;6152;48.728;9.256;2023-04-19T08:09:25;97462.16;;;12.07;100.00
12178;BME280;6152;48.728;9.256;2023-04-19T08:11:51;97461.22;;;12.23;100.00
12178;BME280;6152;48.728;9.256;2023-04-19T08:14:18;97457.19;;;12.45;100.00
12178;BME280;6152;48.728;9.256;2023-04-19T08:16:44;97455.41;;;12.46;100.00
12178;BME280;6152;48.728;9.256;2023-04-19T08:19:10;97457.16;;;12.59;100.00
12178;BME280;6152;48.728;9.256;2023-04-19T08:21:36;97455.63;;;12.70;100.00
12178;BME280;6152;48.728;9.256;2023-04-19T08:24:02;97454.31;;;12.77;100.00
12178;BME280;6152;48.728;9.256;2023-04-19T08:26:29;97455.56;;;12.71;100.00
12178;BME280;6152;48.728;9.256;2023-04-19T08:28:55;97460.25;;;12.52;100.00
12178;BME280;6152;48.728;9.256;2023-04-19T08:31:21;97457.38;;;12.42;100.00
12178;BME280;6152;48.728;9.256;2023-04-19T08:33:47;97454.69;;;12.30;100.00
12178;BME280;6152;48.728;9.256;2023-04-19T08:36:13;97460.00;;;12.42;100.00
12178;BME280;6152;48.728;9.256;2023-04-19T08:38:39;97452.31;;;12.53;100.00
12178;BME280;6152;48.728;9.256;2023-04-19T08:41:06;97451.94;;;12.59;100.00
12178;BME280;6152;48.728;9.256;2023-04-19T08:43:35;97450.22;;;12.32;100.00
12178;BME280;6152;48.728;9.256;2023-04-19T08:46:02;97458.50;;;12.38;100.00
12178;BME280;6152;48.728;9.256;2023-04-19T08:48:29;97448.63;;;12.29;100.00
12178;BME280;6152;48.728;9.256;2023-04-19T08:50:59;97448.00;;;11.97;100.00
12178;BME280;6152;48.728;9.256;2023-04-19T08:53:28;97447.72;;;11.74;100.00
12178;BME280;6152;48.728;9.256;2023-04-19T08:55:55;97447.72;;;11.74;100.00
12178;BME280;6152;48.728;9.256;2023-04-19T08:58:24;97443.22;;;11.76;100.00
12178;BME280;6152;48.728;9.256;2023-04-19T09:00:51;97439.31;;;11.83;100.00
12178;BME280;6152;48.728;9.256;2023-04-19T09:03:17;97435.88;;;11.96;100.00
12178;BME280;6152;48.728;9.256;2023-04-19T09:05:43;97438.03;;;12.04;100.00
12178;BME280;6152;48.728;9.256;2023-04-19T09:08:29;97440.06;;;12.27;100.00
12178;BME280;6152;48.728;9.256;2023-04-19T09:11:00;97440.00;;;12.55;100.00
12178;BME280;6152;48.728;9.256;2023-04-19T09:13:27;97431.97;;;12.58;100.00
12178;BME280;6152;48.728;9.256;2023-04-19T09:15:54;97431.97;;;12.58;100.00
12178;BME280;6152;48.728;9.256;2023-04-19T09:18:22;97435.75;;;12.81;100.00
12178;BME280;6152;48.728;9.256;2023-04-19T09:20:50;97434.81;;;13.09;100.00
12178;BME280;6152;48.728;9.256;2023-04-19T09:23:23;97430.59;;;13.96;92.15
12178;BME280;6152;48.728;9.256;2023-04-19T09:26:00;97425.88;;;15.34;84.92
12178;BME280;6152;48.728;9.256;2023-04-19T09:28:30;97434.19;;;17.28;66.64
12178;BME280;6152;48.728;9.256;2023-04-19T09:30:57;97420.00;;;18.63;58.75
12178;BME280;6152;48.728;9.256;2023-04-19T09:33:35;97414.63;;;19.80;53.25
12178;BME280;6152;48.728;9.256;2023-04-19T09:36:02;97411.38;;;21.32;49.84
12178;BME280;6152;48.728;9.256;2023-04-19T09:38:28;97407.94;;;22.26;45.03
12178;BME280;6152;48.728;9.256;2023-04-19T09:41:07;97400.69;;;21.85;44.42
12178;BME280;6152;48.728;9.256;2023-04-19T09:43:33;97395.69;;;21.03;44.24
12178;BME280;6152;48.728;9.256;2023-04-19T09:46:00;97389.75;;;19.73;47.51
12178;BME280;6152;48.728;9.256;2023-04-19T09:48:26;97387.22;;;18.16;49.41
12178;BME280;6152;48.728;9.256;2023-04-19T09:50:58;97379.06;;;17.89;51.45
12178;BME280;6152;48.728;9.256;2023-04-19T09:53:26;97380.16;;;17.86;52.53
12178;BME280;6152;48.728;9.256;2023-04-19T09:55:53;97381.50;;;17.81;51.74
12178;BME280;6152;48.728;9.256;2023-04-19T09:58:20;97374.69;;;17.69;52.87
12178;BME280;6152;48.728;9.256;2023-04-19T10:00:48;97369.78;;;17.64;54.04
12178;BME280;6152;48.728;9.256;2023-04-19T10:03:16;97374.44;;;18.11;52.91
12178;BME280;6152;48.728;9.256;2023-04-19T10:05:43;97374.25;;;18.34;52.02
12178;BME280;6152;48.728;9.256;2023-04-19T10:08:11;97362.09;;;18.52;52.41
12178;BME280;6152;48.728;9.256;2023-04-19T10:10:41;97365.34;;;17.85;54.91
12178;BME280;6152;48.728;9.256;2023-04-19T10:13:15;97360.91;;;17.03;57.77
12178;BME280;6152;48.728;9.256;2023-04-19T10:15:43;97379.78;;;16.97;57.23
12178;BME280;6152;48.728;9.256;2023-04-19T10:18:10;97363.28;;;17.06;56.75
12178;BME280;6152;48.728;9.256;2023-04-19T10:20:56;97360.97;;;17.12;58.24
12178;BME280;6152;48.728;9.256;2023-04-19T10:23:24;97361.94;;;17.11;58.18
12178;BME280;6152;48.728;9.256;2023-04-19T10:25:55;97355.63;;;16.06;63.40
12178;BME280;6152;48.728;9.256;2023-04-19T10:28:27;97352.75;;;15.87;65.18
12178;BME280;6152;48.728;9.256;2023-04-19T10:31:00;97360.06;;;15.26;69.50
12178;BME280;6152;48.728;9.256;2023-04-19T10:33:28;97365.06;;;15.29;72.86
12178;BME280;6152;48.728;9.256;2023-04-19T10:35:57;97353.28;;;15.35;70.25
12178;BME280;6152;48.728;9.256;2023-04-19T10:38:43;97355.31;;;15.42;70.63
12178;BME280;6152;48.728;9.256;2023-04-19T10:41:16;97352.03;;;15.62;68.42
12178;BME280;6152;48.728;9.256;2023-04-19T10:48:57;97350.19;;;15.30;68.48
12178;BME280;6152;48.728;9.256;2023-04-19T10:51:28;97340.84;;;15.14;69.35
12178;BME280;6152;48.728;9.256;2023-04-19T10:54:01;97346.44;;;15.21;70.20
12178;BME280;6152;48.728;9.256;2023-04-19T11:01:37;97329.50;;;15.14;74.36
12178;BME280;6152;48.728;9.256;2023-04-19T11:04:12;97318.66;;;14.73;76.99
12178;BME280;6152;48.728;9.256;2023-04-19T11:06:59;97325.09;;;14.32;83.16
12178;BME280;6152;48.728;9.256;2023-04-19T11:09:28;97319.16;;;13.94;88.97
12178;BME280;6152;48.728;9.256;2023-04-19T11:12:01;97313.53;;;13.87;90.54
12178;BME280;6152;48.728;9.256;2023-04-19T11:14:30;97318.66;;;13.76;92.54
12178;BME280;6152;48.728;9.256;2023-04-19T11:16:58;97316.41;;;13.46;94.98
12178;BME280;6152;48.728;9.256;2023-04-19T11:19:24;97308.16;;;13.27;100.00
12178;BME280;6152;48.728;9.256;2023-04-19T11:21:50;97303.53;;;13.18;100.00
12178;BME280;6152;48.728;9.256;2023-04-19T11:24:16;97306.69;;;13.23;100.00
12178;BME280;6152;48.728;9.256;2023-04-19T11:26:46;97315.81;;;13.03;100.00
12178;BME280;6152;48.728;9.256;2023-04-19T11:29:13;97308.25;;;13.13;100.00
12178;BME280;6152;48.728;9.256;2023-04-19T11:31:42;97298.09;;;13.21;100.00
12178;BME280;6152;48.728;9.256;2023-04-19T11:34:08;97309.31;;;12.84;100.00
12178;BME280;6152;48.728;9.256;2023-04-19T11:36:35;97297.59;;;12.64;100.00
12178;BME280;6152;48.728;9.256;2023-04-19T11:39:11;97300.63;;;12.31;100.00
12178;BME280;6152;48.728;9.256;2023-04-19T11:41:39;97303.75;;;12.24;100.00
12178;BME280;6152;48.728;9.256;2023-04-19T11:44:16;97299.16;;;12.27;100.00
12178;BME280;6152;48.728;9.256;2023-04-19T11:46:57;97295.13;;;12.09;100.00
12178;BME280;6152;48.728;9.256;2023-04-19T11:49:31;97299.50;;;12.08;100.00
12178;BME280;6152;48.728;9.256;2023-04-19T11:51:59;97295.13;;;12.09;100.00
12178;BME280;6152;48.728;9.256;2023-04-19T11:54:25;97295.69;;;12.00;100.00
12178;BME280;6152;48.728;9.256;2023-04-19T11:57:02;97296.41;;;11.75;100.00
12178;BME280;6152;48.728;9.256;2023-04-19T11:59:33;97302.06;;;11.68;100.00
12178;BME280;6152;48.728;9.256;2023-04-19T12:02:07;97296.00;;;11.53;100.00
12178;BME280;6152;48.728;9.256;2023-04-19T12:04:34;97294.44;;;11.36;100.00
12178;BME280;6152;48.728;9.256;2023-04-19T12:07:02;97294.44;;;11.36;100.00
12178;BME280;6152;48.728;9.256;2023-04-19T12:09:31;97293.88;;;11.31;100.00
12178;BME280;6152;48.728;9.256;2023-04-19T12:11:57;97296.94;;;11.38;100.00
12178;BME280;6152;48.728;9.256;2023-04-19T12:14:23;97289.97;;;11.10;100.00
12178;BME280;6152;48.728;9.256;2023-04-19T12:19:46;97294.38;;;10.80;100.00
12178;BME280;6152;48.728;9.256;2023-04-19T12:22:14;97295.28;;;10.64;100.00
12178;BME280;6152;48.728;9.256;2023-04-19T12:24:42;97295.88;;;10.54;100.00
12178;BME280;6152;48.728;9.256;2023-04-19T12:27:08;97294.47;;;10.48;100.00
12178;BME280;6152;48.728;9.256;2023-04-19T12:29:35;97286.94;;;10.44;100.00
12178;BME280;6152;48.728;9.256;2023-04-19T12:32:03;97285.50;;;10.38;100.00
12178;BME280;6152;48.728;9.256;2023-04-19T12:34:29;97289.22;;;10.34;100.00
12178;BME280;6152;48.728;9.256;2023-04-19T12:36:55;97287.13;;;10.25;100.00
12178;BME280;6152;48.728;9.256;2023-04-19T12:39:22;97289.31;;;10.17;100.00
12178;BME280;6152;48.728;9.256;2023-04-19T12:41:49;97284.78;;;10.05;100.00
12178;BME280;6152;48.728;9.256;2023-04-19T12:44:15;97286.22;;;9.95;100.00
12178;BME280;6152;48.728;9.256;2023-04-19T12:46:41;97281.25;;;9.90;100.00
12178;BME280;6152;48.728;9.256;2023-04-19T12:49:07;97277.00;;;9.74;100.00
12178;BME280;6152;48.728;9.256;2023-04-19T12:51:34;97278.09;;;9.54;100.00
12178;BME280;6152;48.728;9.256;2023-04-19T12:54:01;97280.00;;;9.50;100.00
12178;BME280;6152;48.728;9.256;2023-04-19T12:56:27;97274.19;;;9.45;100.00
12178;BME280;6152;48.728;9.256;2023-04-19T12:58:53;97279.56;;;9.42;100.00
12178;BME280;6152;48.728;9.256;2023-04-19T13:01:19;97281.75;;;9.34;100.00
12178;BME280;6152;48.728;9.256;2023-04-19T13:03:45;97275.03;;;9.30;100.00
12178;BME280;6152;48.728;9.256;2023-04-19T13:06:12;97275.34;;;9.24;100.00
12178;BME280;6152;48.728;9.256;2023-04-19T13:08:40;97265.59;;;9.12;100.00
12178;BME280;6152;48.728;9.256;2023-04-19T13:11:06;97270.34;;;9.04;100.00
12178;BME280;6152;48.728;9.256;2023-04-19T13:13:33;97265.25;;;9.02;100.00
12178;BME280;6152;48.728;9.256;2023-04-19T13:16:00;97265.25;;;9.02;100.00
12178;BME280;6152;48.728;9.256;2023-04-19T13:18:26;97272.50;;;9.13;100.00
12178;BME280;6152;48.728;9.256;2023-04-19T13:20:52;97265.59;;;9.12;100.00